sensor_id;sensor_type;location;lat;lon;timestamp;temperature;humidity
11736;DHT22;5924;51.398;7.088;2023-04-27T00:02:10;2.70;99.90
11736;DHT22;5924;51.398;7.088;2023-04-27T00:04:36;2.70;99.90
11736;DHT22;5924;51.398;7.088;2023-04-27T00:07:02;2.60;99.90
11736;DHT22;5924;51.398;7.088;2023-04-27T00:09:27;2.60;99.90
11736;DHT22;5924;51.398;7.088;2023-04-27T00:11:53;2.50;99.90
11736;DHT22;5924;51.398;7.088;2023-04-27T00:14:19;2.50;99.90
11736;DHT22;5924;51.398;7.088;2023-04-27T00:16:45;2.40;99.90
11736;DHT22;5924;51.398;7.088;2023-04-27T00:19:11;2.40;99.90
11736;DHT22;5924;51.398;7.088;2023-04-27T00:21:38;2.30;99.90
11736;DHT22;5924;51.398;7.088;2023-04-27T00:24:04;2.30;99.90
11736;DHT22;5924;51.398;7.088;2023-04-27T00:26:30;2.20;99.90
11736;DHT22;5924;51.398;7.088;2023-04-27T00:28:56;2.20;99.90
11736;DHT22;5924;51.398;7.088;2023-04-27T00:31:21;2.20;99.90
11736;DHT22;5924;51.398;7.088;2023-04-27T00:33:47;2.30;99.90
11736;DHT22;5924;51.398;7.088;2023-04-27T00:36:13;2.10;99.90
11736;DHT22;5924;51.398;7.088;2023-04-27T00:38:38;2.10;99.90
11736;DHT22;5924;51.398;7.088;2023-04-27T00:41:06;2.00;99.90
11736;DHT22;5924;51.398;7.088;2023-04-27T00:43:32;2.00;99.90
11736;DHT22;5924;51.398;7.088;2023-04-27T00:45:58;1.90;99.90
11736;DHT22;5924;51.398;7.088;2023-04-27T00:48:25;1.90;99.90
11736;DHT22;5924;51.398;7.088;2023-04-27T00:50:51;1.80;99.90
11736;DHT22;5924;51.398;7.088;2023-04-27T00:53:17;1.80;99.90
11736;DHT22;5924;51.398;7.088;2023-04-27T00:55:43;1.80;99.90
11736;DHT22;5924;51.398;7.088;2023-04-27T00:58:08;1.70;99.90
11736;DHT22;5924;51.398;7.088;2023-04-27T01:00:35;1.70;99.90
11736;DHT22;5924;51.398;7.088;2023-04-27T01:03:02;1.70;99.90
11736;DHT22;5924;51.398;7.088;2023-04-27T01:05:29;1.70;99.90
11736;DHT22;5924;51.398;7.088;2023-04-27T01:07:55;1.60;99.90
11736;DHT22;5924;51.398;7.088;2023-04-27T01:10:21;1.60;99.90
11736;DHT22;5924;51.398;7.088;2023-04-27T01:12:46;1.60;99.90
11736;DHT22;5924;51.398;7.088;2023-04-27T01:15:12;1.60;99.90
11736;DHT22;5924;51.398;7.088;2023-04-27T01:17:38;1.50;99.90
11736;DHT22;5924;51.398;7.088;2023-04-27T01:20:04;1.50;99.90
11736;DHT22;5924;51.398;7.088;2023-04-27T01:22:32;1.50;99.90
11736;DHT22;5924;51.398;7.088;2023-04-27T01:24:57;1.40;99.90
11736;DHT22;5924;51.398;7.088;2023-04-27T01:27:23;1.40;99.90
11736;DHT22;5924;51.398;7.088;2023-04-27T01:29:49;1.40;99.90
11736;DHT22;5924;51.398;7.088;2023-04-27T01:32:14;1.30;99.90
11736;DHT22;5924;51.398;7.088;2023-04-27T01:34:40;1.30;99.90
11736;DHT22;5924;51.398;7.088;2023-04-27T01:37:06;1.20;99.90
11736;DHT22;5924;51.398;7.088;2023-04-27T01:39:31;1.20;99.90
11736;DHT22;5924;51.398;7.088;2023-04-27T01:41:57;1.20;99.90
11736;DHT22;5924;51.398;7.088;2023-04-27T01:44:23;1.10;99.90
11736;DHT22;5924;51.398;7.088;2023-04-27T01:46:49;-1.70;99.90
11736;DHT22;5924;51.398;7.088;2023-04-27T01:49:15;1.10;99.90
11736;DHT22;5924;51.398;7.088;2023-04-27T01:51:40;1.10;99.90
11736;DHT22;5924;51.398;7.088;2023-04-27T01:54:06;1.00;99.90
11736;DHT22;5924;51.398;7.088;2023-04-27T01:56:32;1.00;99.90
11736;DHT22;5924;51.398;7.088;2023-04-27T01:58:58;1.00;99.90
11736;DHT22;5924;51.398;7.088;2023-04-27T02:01:23;0.90;99.90
11736;DHT22;5924;51.398;7.088;2023-04-27T02:03:49;1.00;99.90
11736;DHT22;5924;51.398;7.088;2023-04-27T02:06:14;0.90;99.90
11736;DHT22;5924;51.398;7.088;2023-04-27T02:08:40;0.90;99.90
11736;DHT22;5924;51.398;7.088;2023-04-27T02:11:06;0.80;99.90
11736;DHT22;5924;51.398;7.088;2023-04-27T02:13:31;0.80;99.90
11736;DHT22;5924;51.398;7.088;2023-04-27T02:15:57;0.80;99.90
11736;DHT22;5924;51.398;7.088;2023-04-27T02:18:22;0.70;99.90
11736;DHT22;5924;51.398;7.088;2023-04-27T02:20:49;0.70;99.90
11736;DHT22;5924;51.398;7.088;2023-04-27T02:23:14;0.70;99.90
11736;DHT22;5924;51.398;7.088;2023-04-27T02:25:40;0.70;99.90
11736;DHT22;5924;51.398;7.088;2023-04-27T02:28:13;0.70;99.90
11736;DHT22;5924;51.398;7.088;2023-04-27T02:30:39;0.70;99.90
11736;DHT22;5924;51.398;7.088;2023-04-27T02:33:05;-1.10;99.90
11736;DHT22;5924;51.398;7.088;2023-04-27T02:35:30;0.60;99.90
11736;DHT22;5924;51.398;7.088;2023-04-27T02:37:59;0.60;99.90
11736;DHT22;5924;51.398;7.088;2023-04-27T02:40:25;0.50;99.90
11736;DHT22;5924;51.398;7.088;2023-04-27T02:42:50;3.50;99.90
11736;DHT22;5924;51.398;7.088;2023-04-27T02:45:16;0.50;99.90
11736;DHT22;5924;51.398;7.088;2023-04-27T02:47:42;0.50;99.90
11736;DHT22;5924;51.398;7.088;2023-04-27T02:50:08;0.40;99.90
11736;DHT22;5924;51.398;7.088;2023-04-27T02:52:34;0.40;99.90
11736;DHT22;5924;51.398;7.088;2023-04-27T02:55:00;0.30;99.90
11736;DHT22;5924;51.398;7.088;2023-04-27T02:57:26;0.30;99.90
11736;DHT22;5924;51.398;7.088;2023-04-27T02:59:52;0.30;99.90
11736;DHT22;5924;51.398;7.088;2023-04-27T03:02:18;0.30;99.90
11736;DHT22;5924;51.398;7.088;2023-04-27T03:04:44;0.30;99.90
11736;DHT22;5924;51.398;7.088;2023-04-27T03:07:09;0.30;99.90
11736;DHT22;5924;51.398;7.088;2023-04-27T03:09:36;0.30;99.90
11736;DHT22;5924;51.398;7.088;2023-04-27T03:12:03;0.30;99.90
11736;DHT22;5924;51.398;7.088;2023-04-27T03:14:29;0.30;99.90
11736;DHT22;5924;51.398;7.088;2023-04-27T03:16:54;0.30;99.90
11736;DHT22;5924;51.398;7.088;2023-04-27T03:19:21;0.20;99.90
11736;DHT22;5924;51.398;7.088;2023-04-27T03:21:47;0.40;99.90
11736;DHT22;5924;51.398;7.088;2023-04-27T03:24:13;0.20;99.90
11736;DHT22;5924;51.398;7.088;2023-04-27T03:26:38;0.20;99.90
11736;DHT22;5924;51.398;7.088;2023-04-27T03:29:04;0.10;99.90
11736;DHT22;5924;51.398;7.088;2023-04-27T03:31:31;0.10;99.90
11736;DHT22;5924;51.398;7.088;2023-04-27T03:33:56;2.50;99.90
11736;DHT22;5924;51.398;7.088;2023-04-27T03:36:22;0.10;99.90
11736;DHT22;5924;51.398;7.088;2023-04-27T03:38:48;0.00;99.90
11736;DHT22;5924;51.398;7.088;2023-04-27T03:41:13;0.00;99.90
11736;DHT22;5924;51.398;7.088;2023-04-27T03:43:39;0.00;99.90
11736;DHT22;5924;51.398;7.088;2023-04-27T03:46:05;-0.10;99.90
11736;DHT22;5924;51.398;7.088;2023-04-27T03:48:30;-0.10;99.90
11736;DHT22;5924;51.398;7.088;2023-04-27T03:50:56;-0.20;99.90
11736;DHT22;5924;51.398;7.088;2023-04-27T03:53:21;0.40;99.90
11736;DHT22;5924;51.398;7.088;2023-04-27T03:55:47;-0.20;99.90
11736;DHT22;5924;51.398;7.088;2023-04-27T03:58:13;-0.20;99.90
11736;DHT22;5924;51.398;7.088;2023-04-27T04:00:39;-0.20;99.90
11736;DHT22;5924;51.398;7.088;2023-04-27T04:03:05;-0.20;99.90
11736;DHT22;5924;51.398;7.088;2023-04-27T04:05:32;-0.20;99.90
11736;DHT22;5924;51.398;7.088;2023-04-27T04:07:58;-0.20;99.90
11736;DHT22;5924;51.398;7.088;2023-04-27T04:10:24;-0.30;99.90
11736;DHT22;5924;51.398;7.088;2023-04-27T04:12:50;-0.30;99.90
11736;DHT22;5924;51.398;7.088;2023-04-27T04:15:16;-0.30;99.90
11736;DHT22;5924;51.398;7.088;2023-04-27T04:17:42;-0.30;99.90
11736;DHT22;5924;51.398;7.088;2023-04-27T04:20:08;-0.30;99.90
11736;DHT22;5924;51.398;7.088;2023-04-27T04:22:36;-0.20;99.90
11736;DHT22;5924;51.398;7.088;2023-04-27T04:25:02;-0.10;99.90
11736;DHT22;5924;51.398;7.088;2023-04-27T04:27:28;-0.20;99.90
11736;DHT22;5924;51.398;7.088;2023-04-27T04:29:53;-0.20;99.90
11736;DHT22;5924;51.398;7.088;2023-04-27T04:32:20;-0.20;99.90
11736;DHT22;5924;51.398;7.088;2023-04-27T04:34:50;-2.10;99.90
11736;DHT22;5924;51.398;7.088;2023-04-27T04:37:16;-0.20;99.90
11736;DHT22;5924;51.398;7.088;2023-04-27T04:39:43;-0.20;99.90
11736;DHT22;5924;51.398;7.088;2023-04-27T04:42:09;-0.20;99.90
11736;DHT22;5924;51.398;7.088;2023-04-27T04:44:34;-0.20;99.90
11736;DHT22;5924;51.398;7.088;2023-04-27T04:47:01;-0.20;99.90
11736;DHT22;5924;51.398;7.088;2023-04-27T04:49:26;-0.10;99.90
11736;DHT22;5924;51.398;7.088;2023-04-27T04:51:52;-0.10;99.90
11736;DHT22;5924;51.398;7.088;2023-04-27T04:54:17;-2.00;99.90
11736;DHT22;5924;51.398;7.088;2023-04-27T04:56:43;-0.10;99.90
11736;DHT22;5924;51.398;7.088;2023-04-27T04:59:09;-0.10;99.90
11736;DHT22;5924;51.398;7.088;2023-04-27T05:01:34;0.00;99.90
11736;DHT22;5924;51.398;7.088;2023-04-27T05:04:00;0.00;99.90
11736;DHT22;5924;51.398;7.088;2023-04-27T05:06:26;0.00;99.90
11736;DHT22;5924;51.398;7.088;2023-04-27T05:08:52;0.00;99.90
11736;DHT22;5924;51.398;7.088;2023-04-27T05:11:18;0.60;99.90
11736;DHT22;5924;51.398;7.088;2023-04-27T05:13:43;0.00;99.90
11736;DHT22;5924;51.398;7.088;2023-04-27T05:16:09;0.10;99.90
11736;DHT22;5924;51.398;7.088;2023-04-27T05:18:35;0.10;99.90
11736;DHT22;5924;51.398;7.088;2023-04-27T05:21:01;0.20;99.90
11736;DHT22;5924;51.398;7.088;2023-04-27T05:23:26;0.20;99.90
11736;DHT22;5924;51.398;7.088;2023-04-27T05:25:52;0.30;99.90
11736;DHT22;5924;51.398;7.088;2023-04-27T05:28:18;-2.30;99.90
11736;DHT22;5924;51.398;7.088;2023-04-27T05:30:43;0.30;99.90
11736;DHT22;5924;51.398;7.088;2023-04-27T05:33:09;0.40;99.90
11736;DHT22;5924;51.398;7.088;2023-04-27T05:35:35;0.50;99.90
11736;DHT22;5924;51.398;7.088;2023-04-27T05:38:01;0.50;99.90
11736;DHT22;5924;51.398;7.088;2023-04-27T05:40:27;0.60;99.90
11736;DHT22;5924;51.398;7.088;2023-04-27T05:42:52;0.70;99.90
11736;DHT22;5924;51.398;7.088;2023-04-27T05:45:19;0.80;99.90
11736;DHT22;5924;51.398;7.088;2023-04-27T05:47:45;0.90;99.90
11736;DHT22;5924;51.398;7.088;2023-04-27T05:50:10;1.00;99.90
11736;DHT22;5924;51.398;7.088;2023-04-27T05:52:36;1.10;99.90
11736;DHT22;5924;51.398;7.088;2023-04-27T05:55:03;1.20;99.90
11736;DHT22;5924;51.398;7.088;2023-04-27T05:57:29;1.30;99.90
11736;DHT22;5924;51.398;7.088;2023-04-27T05:59:54;1.50;99.90
11736;DHT22;5924;51.398;7.088;2023-04-27T06:02:21;1.60;99.90
11736;DHT22;5924;51.398;7.088;2023-04-27T06:04:47;1.70;99.90
11736;DHT22;5924;51.398;7.088;2023-04-27T06:07:14;1.90;99.90
11736;DHT22;5924;51.398;7.088;2023-04-27T06:09:40;2.10;99.90
11736;DHT22;5924;51.398;7.088;2023-04-27T06:12:07;2.20;99.90
11736;DHT22;5924;51.398;7.088;2023-04-27T06:14:34;2.40;99.90
11736;DHT22;5924;51.398;7.088;2023-04-27T06:17:00;2.60;99.90
11736;DHT22;5924;51.398;7.088;2023-04-27T06:19:27;2.70;99.90
11736;DHT22;5924;51.398;7.088;2023-04-27T06:21:53;2.90;99.90
11736;DHT22;5924;51.398;7.088;2023-04-27T06:24:20;3.10;99.90
11736;DHT22;5924;51.398;7.088;2023-04-27T06:26:46;3.30;99.90
11736;DHT22;5924;51.398;7.088;2023-04-27T06:29:11;3.40;99.90
11736;DHT22;5924;51.398;7.088;2023-04-27T06:31:37;3.70;99.90
11736;DHT22;5924;51.398;7.088;2023-04-27T06:34:03;3.70;99.90
11736;DHT22;5924;51.398;7.088;2023-04-27T06:36:29;4.10;99.90
11736;DHT22;5924;51.398;7.088;2023-04-27T06:38:56;4.40;99.90
11736;DHT22;5924;51.398;7.088;2023-04-27T06:41:23;4.50;99.90
11736;DHT22;5924;51.398;7.088;2023-04-27T06:43:49;4.60;99.90
11736;DHT22;5924;51.398;7.088;2023-04-27T06:46:15;3.90;99.90
11736;DHT22;5924;51.398;7.088;2023-04-27T06:48:41;4.90;99.90
11736;DHT22;5924;51.398;7.088;2023-04-27T06:51:06;5.00;99.90
11736;DHT22;5924;51.398;7.088;2023-04-27T06:53:32;5.20;99.90
11736;DHT22;5924;51.398;7.088;2023-04-27T06:55:58;5.30;99.90
11736;DHT22;5924;51.398;7.088;2023-04-27T06:58:24;5.50;99.90
11736;DHT22;5924;51.398;7.088;2023-04-27T07:00:50;5.60;99.90
11736;DHT22;5924;51.398;7.088;2023-04-27T07:03:16;5.70;99.90
11736;DHT22;5924;51.398;7.088;2023-04-27T07:05:42;5.80;99.90
11736;DHT22;5924;51.398;7.088;2023-04-27T07:08:07;5.80;99.90
11736;DHT22;5924;51.398;7.088;2023-04-27T07:10:33;5.90;99.90
11736;DHT22;5924;51.398;7.088;2023-04-27T07:12:59;6.00;99.90
11736;DHT22;5924;51.398;7.088;2023-04-27T07:15:24;6.10;99.90
11736;DHT22;5924;51.398;7.088;2023-04-27T07:17:51;6.20;99.90
11736;DHT22;5924;51.398;7.088;2023-04-27T07:20:19;6.30;99.90
11736;DHT22;5924;51.398;7.088;2023-04-27T07:22:45;6.40;99.90
11736;DHT22;5924;51.398;7.088;2023-04-27T07:25:10;6.50;99.90
11736;DHT22;5924;51.398;7.088;2023-04-27T07:27:36;6.60;99.90
11736;DHT22;5924;51.398;7.088;2023-04-27T07:30:03;6.70;99.90
11736;DHT22;5924;51.398;7.088;2023-04-27T07:32:30;6.80;99.90
11736;DHT22;5924;51.398;7.088;2023-04-27T07:34:56;6.90;99.90
11736;DHT22;5924;51.398;7.088;2023-04-27T07:37:22;7.00;99.90
11736;DHT22;5924;51.398;7.088;2023-04-27T07:39:49;7.10;99.90
11736;DHT22;5924;51.398;7.088;2023-04-27T07:42:17;7.10;99.90
11736;DHT22;5924;51.398;7.088;2023-04-27T07:44:43;7.20;99.90
11736;DHT22;5924;51.398;7.088;2023-04-27T07:47:09;7.30;99.90
11736;DHT22;5924;51.398;7.088;2023-04-27T07:49:35;7.40;99.90
11736;DHT22;5924;51.398;7.088;2023-04-27T07:52:01;7.50;99.90
11736;DHT22;5924;51.398;7.088;2023-04-27T07:54:28;7.60;99.90
11736;DHT22;5924;51.398;7.088;2023-04-27T07:56:54;7.70;99.90
11736;DHT22;5924;51.398;7.088;2023-04-27T07:59:20;7.80;99.90
11736;DHT22;5924;51.398;7.088;2023-04-27T08:01:45;7.90;99.90
11736;DHT22;5924;51.398;7.088;2023-04-27T08:04:11;8.10;99.90
11736;DHT22;5924;51.398;7.088;2023-04-27T08:06:38;8.20;99.90
11736;DHT22;5924;51.398;7.088;2023-04-27T08:09:04;8.30;99.90
11736;DHT22;5924;51.398;7.088;2023-04-27T08:11:30;8.40;99.90
11736;DHT22;5924;51.398;7.088;2023-04-27T08:13:56;8.50;99.90
11736;DHT22;5924;51.398;7.088;2023-04-27T08:16:21;8.60;99.90
11736;DHT22;5924;51.398;7.088;2023-04-27T08:18:48;8.70;99.90
11736;DHT22;5924;51.398;7.088;2023-04-27T08:21:14;8.80;99.90
11736;DHT22;5924;51.398;7.088;2023-04-27T08:23:40;8.90;99.90
11736;DHT22;5924;51.398;7.088;2023-04-27T08:26:06;8.90;99.90
11736;DHT22;5924;51.398;7.088;2023-04-27T08:28:32;9.10;99.90
11736;DHT22;5924;51.398;7.088;2023-04-27T08:30:58;9.20;99.90
11736;DHT22;5924;51.398;7.088;2023-04-27T08:33:24;9.40;99.90
11736;DHT22;5924;51.398;7.088;2023-04-27T08:35:51;9.50;99.90
11736;DHT22;5924;51.398;7.088;2023-04-27T08:38:17;9.70;99.90
11736;DHT22;5924;51.398;7.088;2023-04-27T08:40:44;9.80;99.90
11736;DHT22;5924;51.398;7.088;2023-04-27T08:43:09;9.90;99.90
11736;DHT22;5924;51.398;7.088;2023-04-27T08:45:35;9.90;99.90
11736;DHT22;5924;51.398;7.088;2023-04-27T08:48:01;10.20;99.90
11736;DHT22;5924;51.398;7.088;2023-04-27T08:50:27;9.90;99.90
11736;DHT22;5924;51.398;7.088;2023-04-27T08:52:54;10.10;99.90
11736;DHT22;5924;51.398;7.088;2023-04-27T08:55:20;10.10;99.90
11736;DHT22;5924;51.398;7.088;2023-04-27T08:57:58;10.20;99.90
11736;DHT22;5924;51.398;7.088;2023-04-27T09:00:26;10.40;99.90
11736;DHT22;5924;51.398;7.088;2023-04-27T09:02:51;10.50;99.90
11736;DHT22;5924;51.398;7.088;2023-04-27T09:05:20;10.60;99.90
11736;DHT22;5924;51.398;7.088;2023-04-27T09:07:59;10.80;99.90
11736;DHT22;5924;51.398;7.088;2023-04-27T09:10:25;10.90;99.90
11736;DHT22;5924;51.398;7.088;2023-04-27T09:13:00;11.00;99.90
11736;DHT22;5924;51.398;7.088;2023-04-27T09:15:26;9.70;99.90
11736;DHT22;5924;51.398;7.088;2023-04-27T09:17:54;11.00;99.90
11736;DHT22;5924;51.398;7.088;2023-04-27T09:20:20;11.00;99.90
11736;DHT22;5924;51.398;7.088;2023-04-27T09:22:51;11.10;99.90
11736;DHT22;5924;51.398;7.088;2023-04-27T09:25:27;11.20;99.90
11736;DHT22;5924;51.398;7.088;2023-04-27T09:27:53;11.30;99.90
11736;DHT22;5924;51.398;7.088;2023-04-27T09:30:19;11.50;99.90
11736;DHT22;5924;51.398;7.088;2023-04-27T09:32:56;11.60;99.90
11736;DHT22;5924;51.398;7.088;2023-04-27T09:35:26;11.70;99.90
11736;DHT22;5924;51.398;7.088;2023-04-27T09:37:53;11.80;99.90
11736;DHT22;5924;51.398;7.088;2023-04-27T09:40:22;11.80;99.90
11736;DHT22;5924;51.398;7.088;2023-04-27T09:42:51;11.70;99.90
11736;DHT22;5924;51.398;7.088;2023-04-27T09:45:17;11.70;99.90
11736;DHT22;5924;51.398;7.088;2023-04-27T09:47:44;11.70;99.90
11736;DHT22;5924;51.398;7.088;2023-04-27T09:50:13;11.80;99.90
11736;DHT22;5924;51.398;7.088;2023-04-27T09:52:39;11.80;99.90
11736;DHT22;5924;51.398;7.088;2023-04-27T09:55:08;11.80;99.90
11736;DHT22;5924;51.398;7.088;2023-04-27T09:57:54;11.90;99.90
11736;DHT22;5924;51.398;7.088;2023-04-27T10:00:34;12.00;99.80
11736;DHT22;5924;51.398;7.088;2023-04-27T10:03:29;12.00;99.90
11736;DHT22;5924;51.398;7.088;2023-04-27T10:08:54;12.20;99.80
11736;DHT22;5924;51.398;7.088;2023-04-27T10:11:32;12.10;95.90
11736;DHT22;5924;51.398;7.088;2023-04-27T10:13:57;12.10;97.30
11736;DHT22;5924;51.398;7.088;2023-04-27T10:17:00;12.20;97.30
11736;DHT22;5924;51.398;7.088;2023-04-27T10:19:25;12.50;98.60
11736;DHT22;5924;51.398;7.088;2023-04-27T10:22:01;12.60;98.40
11736;DHT22;5924;51.398;7.088;2023-04-27T10:24:36;12.70;96.10
11736;DHT22;5924;51.398;7.088;2023-04-27T10:27:06;12.60;96.20
11736;DHT22;5924;51.398;7.088;2023-04-27T10:29:42;12.60;95.30
11736;DHT22;5924;51.398;7.088;2023-04-27T10:34:39;12.60;96.40
11736;DHT22;5924;51.398;7.088;2023-04-27T10:37:10;12.80;97.10
11736;DHT22;5924;51.398;7.088;2023-04-27T10:39:38;13.10;96.00
11736;DHT22;5924;51.398;7.088;2023-04-27T10:42:05;13.20;97.20
11736;DHT22;5924;51.398;7.088;2023-04-27T10:44:33;13.30;94.30
11736;DHT22;5924;51.398;7.088;2023-04-27T10:47:01;13.30;94.20
11736;DHT22;5924;51.398;7.088;2023-04-27T10:49:28;13.30;96.30
11736;DHT22;5924;51.398;7.088;2023-04-27T10:51:56;13.40;94.30
11736;DHT22;5924;51.398;7.088;2023-04-27T10:54:31;13.60;95.70
11736;DHT22;5924;51.398;7.088;2023-04-27T10:57:08;13.40;93.10
11736;DHT22;5924;51.398;7.088;2023-04-27T10:59:49;13.20;91.40
11736;DHT22;5924;51.398;7.088;2023-04-27T11:02:15;13.20;91.70
11736;DHT22;5924;51.398;7.088;2023-04-27T11:04:41;13.40;93.60
11736;DHT22;5924;51.398;7.088;2023-04-27T11:07:08;13.50;91.80
11736;DHT22;5924;51.398;7.088;2023-04-27T11:09:38;13.60;90.80
11736;DHT22;5924;51.398;7.088;2023-04-27T11:12:11;14.90;92.40
11736;DHT22;5924;51.398;7.088;2023-04-27T11:14:36;12.50;89.70
11736;DHT22;5924;51.398;7.088;2023-04-27T11:17:05;13.00;88.30
11736;DHT22;5924;51.398;7.088;2023-04-27T11:19:31;12.90;91.60
11736;DHT22;5924;51.398;7.088;2023-04-27T11:22:04;13.10;92.90
11736;DHT22;5924;51.398;7.088;2023-04-27T11:24:31;13.40;90.70
11736;DHT22;5924;51.398;7.088;2023-04-27T11:26:57;13.50;92.10
11736;DHT22;5924;51.398;7.088;2023-04-27T11:29:23;13.60;88.10
11736;DHT22;5924;51.398;7.088;2023-04-27T11:31:50;13.60;87.00
11736;DHT22;5924;51.398;7.088;2023-04-27T11:34:23;13.70;89.00
11736;DHT22;5924;51.398;7.088;2023-04-27T11:36:57;12.40;85.70
11736;DHT22;5924;51.398;7.088;2023-04-27T11:39:26;13.90;89.30
11736;DHT22;5924;51.398;7.088;2023-04-27T11:41:53;13.90;84.30
11736;DHT22;5924;51.398;7.088;2023-04-27T11:44:24;14.00;80.80
11736;DHT22;5924;51.398;7.088;2023-04-27T11:46:50;14.20;81.60
11736;DHT22;5924;51.398;7.088;2023-04-27T11:49:17;14.40;80.50
11736;DHT22;5924;51.398;7.088;2023-04-27T11:51:45;14.50;78.50
11736;DHT22;5924;51.398;7.088;2023-04-27T11:54:11;14.60;77.90
11736;DHT22;5924;51.398;7.088;2023-04-27T11:56:39;14.60;80.80
11736;DHT22;5924;51.398;7.088;2023-04-27T11:59:05;14.80;80.10
11736;DHT22;5924;51.398;7.088;2023-04-27T12:01:32;15.00;80.00
11736;DHT22;5924;51.398;7.088;2023-04-27T12:04:00;15.00;76.90
11736;DHT22;5924;51.398;7.088;2023-04-27T12:06:26;15.30;77.50
11736;DHT22;5924;51.398;7.088;2023-04-27T12:08:55;15.50;77.60
11736;DHT22;5924;51.398;7.088;2023-04-27T12:11:22;16.20;75.70
11736;DHT22;5924;51.398;7.088;2023-04-27T12:13:47;16.60;74.70
11736;DHT22;5924;51.398;7.088;2023-04-27T12:16:13;16.80;72.90
11736;DHT22;5924;51.398;7.088;2023-04-27T12:18:39;17.70;77.00
11736;DHT22;5924;51.398;7.088;2023-04-27T12:21:05;18.20;68.50
11736;DHT22;5924;51.398;7.088;2023-04-27T12:23:32;18.60;65.80
11736;DHT22;5924;51.398;7.088;2023-04-27T12:25:58;19.30;65.40
11736;DHT22;5924;51.398;7.088;2023-04-27T12:28:24;19.50;62.80
11736;DHT22;5924;51.398;7.088;2023-04-27T12:30:49;20.20;60.50
11736;DHT22;5924;51.398;7.088;2023-04-27T12:33:15;20.70;60.20
11736;DHT22;5924;51.398;7.088;2023-04-27T12:35:41;20.70;56.90
11736;DHT22;5924;51.398;7.088;2023-04-27T12:38:07;20.40;56.00
11736;DHT22;5924;51.398;7.088;2023-04-27T12:40:33;20.40;56.70
11736;DHT22;5924;51.398;7.088;2023-04-27T12:42:59;19.70;53.40
11736;DHT22;5924;51.398;7.088;2023-04-27T12:45:25;19.30;56.50
11736;DHT22;5924;51.398;7.088;2023-04-27T12:47:51;19.50;56.00
11736;DHT22;5924;51.398;7.088;2023-04-27T12:50:19;20.10;57.00
11736;DHT22;5924;51.398;7.088;2023-04-27T12:52:45;20.50;57.30
11736;DHT22;5924;51.398;7.088;2023-04-27T12:55:11;20.60;53.60
11736;DHT22;5924;51.398;7.088;2023-04-27T12:57:37;20.50;51.30
11736;DHT22;5924;51.398;7.088;2023-04-27T13:00:03;19.90;52.20
11736;DHT22;5924;51.398;7.088;2023-04-27T13:02:32;17.70;51.20
11736;DHT22;5924;51.398;7.088;2023-04-27T13:04:59;19.40;53.00
11736;DHT22;5924;51.398;7.088;2023-04-27T13:07:25;18.90;55.00
11736;DHT22;5924;51.398;7.088;2023-04-27T13:09:50;18.90;54.00
11736;DHT22;5924;51.398;7.088;2023-04-27T13:12:16;19.10;53.80
11736;DHT22;5924;51.398;7.088;2023-04-27T13:14:42;19.60;54.10
11736;DHT22;5924;51.398;7.088;2023-04-27T13:17:10;19.60;52.40
11736;DHT22;5924;51.398;7.088;2023-04-27T13:19:36;19.40;54.80
11736;DHT22;5924;51.398;7.088;2023-04-27T13:22:02;19.70;54.20
11736;DHT22;5924;51.398;7.088;2023-04-27T13:24:28;20.10;53.80
11736;DHT22;5924;51.398;7.088;2023-04-27T13:26:54;20.30;55.30
11736;DHT22;5924;51.398;7.088;2023-04-27T13:29:20;21.00;51.60
11736;DHT22;5924;51.398;7.088;2023-04-27T13:31:49;21.00;51.60
11736;DHT22;5924;51.398;7.088;2023-04-27T13:34:15;20.60;51.90
11736;DHT22;5924;51.398;7.088;2023-04-27T13:36:41;20.90;52.30
11736;DHT22;5924;51.398;7.088;2023-04-27T13:39:06;21.40;54.20
11736;DHT22;5924;51.398;7.088;2023-04-27T13:41:33;21.50;48.30
11736;DHT22;5924;51.398;7.088;2023-04-27T13:44:00;21.20;51.90
11736;DHT22;5924;51.398;7.088;2023-04-27T13:46:26;20.70;52.70
11736;DHT22;5924;51.398;7.088;2023-04-27T13:48:51;21.30;52.70
11736;DHT22;5924;51.398;7.088;2023-04-27T13:51:17;22.40;54.60
11736;DHT22;5924;51.398;7.088;2023-04-27T13:53:44;24.50;53.50
11736;DHT22;5924;51.398;7.088;2023-04-27T13:56:10;25.20;47.20
11736;DHT22;5924;51.398;7.088;2023-04-27T13:58:35;24.40;45.90
11736;DHT22;5924;51.398;7.088;2023-04-27T14:01:01;24.00;48.90
11736;DHT22;5924;51.398;7.088;2023-04-27T14:03:27;24.30;46.90
11736;DHT22;5924;51.398;7.088;2023-04-27T14:05:54;24.80;48.60
11736;DHT22;5924;51.398;7.088;2023-04-27T14:08:21;25.60;47.50
11736;DHT22;5924;51.398;7.088;2023-04-27T14:10:47;25.40;44.60
11736;DHT22;5924;51.398;7.088;2023-04-27T14:13:13;25.70;47.40
11736;DHT22;5924;51.398;7.088;2023-04-27T14:15:40;25.10;44.10
11736;DHT22;5924;51.398;7.088;2023-04-27T14:18:07;24.20;43.90
11736;DHT22;5924;51.398;7.088;2023-04-27T14:20:34;24.30;46.40
11736;DHT22;5924;51.398;7.088;2023-04-27T14:23:02;25.00;45.90
11736;DHT22;5924;51.398;7.088;2023-04-27T14:25:28;25.40;46.70
11736;DHT22;5924;51.398;7.088;2023-04-27T14:27:58;25.40;43.70
11736;DHT22;5924;51.398;7.088;2023-04-27T14:30:24;25.10;45.60
11736;DHT22;5924;51.398;7.088;2023-04-27T14:32:50;24.60;43.40
11736;DHT22;5924;51.398;7.088;2023-04-27T14:35:15;24.10;41.60
11736;DHT22;5924;51.398;7.088;2023-04-27T14:37:41;22.60;41.70
11736;DHT22;5924;51.398;7.088;2023-04-27T14:40:08;21.80;44.70
11736;DHT22;5924;51.398;7.088;2023-04-27T14:42:33;21.60;46.80
11736;DHT22;5924;51.398;7.088;2023-04-27T14:44:59;21.80;45.30
11736;DHT22;5924;51.398;7.088;2023-04-27T14:47:25;21.00;45.20
11736;DHT22;5924;51.398;7.088;2023-04-27T14:49:51;21.00;47.10
11736;DHT22;5924;51.398;7.088;2023-04-27T14:52:16;21.50;46.70
11736;DHT22;5924;51.398;7.088;2023-04-27T14:54:42;22.20;46.00
11736;DHT22;5924;51.398;7.088;2023-04-27T14:57:08;22.40;46.70
11736;DHT22;5924;51.398;7.088;2023-04-27T14:59:33;22.90;45.50
11736;DHT22;5924;51.398;7.088;2023-04-27T15:01:59;22.50;44.00
11736;DHT22;5924;51.398;7.088;2023-04-27T15:04:25;22.10;45.70
11736;DHT22;5924;51.398;7.088;2023-04-27T15:06:52;22.60;47.70
11736;DHT22;5924;51.398;7.088;2023-04-27T15:09:18;23.60;47.80
11736;DHT22;5924;51.398;7.088;2023-04-27T15:11:44;24.20;45.90
11736;DHT22;5924;51.398;7.088;2023-04-27T15:14:09;24.30;45.30
11736;DHT22;5924;51.398;7.088;2023-04-27T15:16:36;23.70;44.60
11736;DHT22;5924;51.398;7.088;2023-04-27T15:19:02;22.90;45.20
11736;DHT22;5924;51.398;7.088;2023-04-27T15:21:29;22.10;44.90
11736;DHT22;5924;51.398;7.088;2023-04-27T15:23:54;21.00;45.10
11736;DHT22;5924;51.398;7.088;2023-04-27T15:26:20;20.40;45.50
11736;DHT22;5924;51.398;7.088;2023-04-27T15:28:46;19.90;47.40
11736;DHT22;5924;51.398;7.088;2023-04-27T15:31:11;19.40;47.90
11736;DHT22;5924;51.398;7.088;2023-04-27T15:33:37;19.20;48.60
11736;DHT22;5924;51.398;7.088;2023-04-27T15:36:03;18.90;48.30
11736;DHT22;5924;51.398;7.088;2023-04-27T15:38:28;18.70;50.50
11736;DHT22;5924;51.398;7.088;2023-04-27T15:40:54;18.10;47.70
11736;DHT22;5924;51.398;7.088;2023-04-27T15:43:20;17.80;49.80
11736;DHT22;5924;51.398;7.088;2023-04-27T15:45:46;17.60;49.50
11736;DHT22;5924;51.398;7.088;2023-04-27T15:48:11;17.30;50.00
11736;DHT22;5924;51.398;7.088;2023-04-27T15:50:38;17.30;53.00
11736;DHT22;5924;51.398;7.088;2023-04-27T15:53:03;17.50;52.50
11736;DHT22;5924;51.398;7.088;2023-04-27T15:55:29;17.80;52.50